sensor_id;sensor_type;location;lat;lon;timestamp;pressure;altitude;pressure_sealevel;temperature;humidity
15678;BME280;7939;50.814;6.368;2022-08-19T00:01:15;99695.00;;;24.68;51.66
15678;BME280;7939;50.814;6.368;2022-08-19T00:03:42;99681.84;;;24.70;51.58
15678;BME280;7939;50.814;6.368;2022-08-19T00:06:09;99689.78;;;24.68;51.54
15678;BME280;7939;50.814;6.368;2022-08-19T00:08:35;99689.03;;;24.66;51.64
15678;BME280;7939;50.814;6.368;2022-08-19T00:11:02;99688.19;;;24.66;51.76
15678;BME280;7939;50.814;6.368;2022-08-19T00:13:29;99689.97;;;24.65;51.63
15678;BME280;7939;50.814;6.368;2022-08-19T00:15:57;99687.44;;;24.64;51.90
15678;BME280;7939;50.814;6.368;2022-08-19T00:18:26;99687.53;;;24.62;51.90
15678;BME280;7939;50.814;6.368;2022-08-19T00:20:53;99688.47;;;24.61;51.69
15678;BME280;7939;50.814;6.368;2022-08-19T00:23:19;99687.53;;;24.62;51.74
15678;BME280;7939;50.814;6.368;2022-08-19T00:25:46;99685.84;;;24.61;51.88
15678;BME280;7939;50.814;6.368;2022-08-19T00:28:13;99690.34;;;24.59;51.86
15678;BME280;7939;50.814;6.368;2022-08-19T00:30:39;99697.34;;;24.59;52.07
15678;BME280;7939;50.814;6.368;2022-08-19T00:33:08;99690.44;;;24.58;51.95
15678;BME280;7939;50.814;6.368;2022-08-19T00:35:34;99692.19;;;24.57;51.99
15678;BME280;7939;50.814;6.368;2022-08-19T00:38:03;99693.13;;;24.56;51.95
15678;BME280;7939;50.814;6.368;2022-08-19T00:40:31;99689.66;;;24.56;51.91
15678;BME280;7939;50.814;6.368;2022-08-19T00:42:58;99685.38;;;24.55;51.99
15678;BME280;7939;50.814;6.368;2022-08-19T00:45:27;99675.97;;;24.52;51.87
15678;BME280;7939;50.814;6.368;2022-08-19T00:47:56;99675.28;;;24.48;51.92
15678;BME280;7939;50.814;6.368;2022-08-19T00:50:24;99667.56;;;24.47;51.97
15678;BME280;7939;50.814;6.368;2022-08-19T00:52:51;99674.56;;;24.46;52.15
15678;BME280;7939;50.814;6.368;2022-08-19T00:55:21;99682.56;;;24.43;51.92
15678;BME280;7939;50.814;6.368;2022-08-19T00:57:53;99681.63;;;24.44;52.06
15678;BME280;7939;50.814;6.368;2022-08-19T01:00:23;99682.44;;;24.45;51.93
15678;BME280;7939;50.814;6.368;2022-08-19T01:02:51;99679.94;;;24.43;52.18
15678;BME280;7939;50.814;6.368;2022-08-19T01:05:21;99680.97;;;24.41;52.02
15678;BME280;7939;50.814;6.368;2022-08-19T01:07:50;99679.28;;;24.40;52.23
15678;BME280;7939;50.814;6.368;2022-08-19T01:10:20;99680.22;;;24.39;52.00
15678;BME280;7939;50.814;6.368;2022-08-19T01:12:48;99675.91;;;24.38;52.12
15678;BME280;7939;50.814;6.368;2022-08-19T01:15:19;99687.41;;;24.35;52.14
15678;BME280;7939;50.814;6.368;2022-08-19T01:17:47;99684.78;;;24.35;52.11
15678;BME280;7939;50.814;6.368;2022-08-19T01:20:16;99683.09;;;24.34;52.45
15678;BME280;7939;50.814;6.368;2022-08-19T01:22:47;99676.16;;;24.33;52.19
15678;BME280;7939;50.814;6.368;2022-08-19T01:25:16;99681.47;;;24.32;52.09
15678;BME280;7939;50.814;6.368;2022-08-19T01:27:47;99684.06;;;24.32;52.45
15678;BME280;7939;50.814;6.368;2022-08-19T01:30:17;99675.50;;;24.30;52.43
15678;BME280;7939;50.814;6.368;2022-08-19T01:32:44;99679.03;;;24.29;52.15
15678;BME280;7939;50.814;6.368;2022-08-19T01:35:12;99678.22;;;24.28;52.32
15678;BME280;7939;50.814;6.368;2022-08-19T01:37:46;99684.38;;;24.27;52.36
15678;BME280;7939;50.814;6.368;2022-08-19T01:40:13;99684.38;;;24.27;52.33
15678;BME280;7939;50.814;6.368;2022-08-19T01:42:40;99679.22;;;24.26;52.58
15678;BME280;7939;50.814;6.368;2022-08-19T01:45:07;99675.84;;;24.23;52.51
15678;BME280;7939;50.814;6.368;2022-08-19T01:47:34;99676.78;;;24.22;52.27
15678;BME280;7939;50.814;6.368;2022-08-19T01:50:01;99672.50;;;24.21;52.65
15678;BME280;7939;50.814;6.368;2022-08-19T01:52:28;99668.28;;;24.19;52.44
15678;BME280;7939;50.814;6.368;2022-08-19T01:54:56;99666.59;;;24.18;52.51
15678;BME280;7939;50.814;6.368;2022-08-19T01:57:22;99664.09;;;24.16;52.42
15678;BME280;7939;50.814;6.368;2022-08-19T01:59:49;99661.56;;;24.15;52.54
15678;BME280;7939;50.814;6.368;2022-08-19T02:02:16;99657.28;;;24.14;52.57
15678;BME280;7939;50.814;6.368;2022-08-19T02:04:43;99664.25;;;24.13;52.42
15678;BME280;7939;50.814;6.368;2022-08-19T02:07:11;99658.19;;;24.13;52.57
15678;BME280;7939;50.814;6.368;2022-08-19T02:09:38;99664.44;;;24.10;52.60
15678;BME280;7939;50.814;6.368;2022-08-19T02:12:07;99663.59;;;24.10;52.82
15678;BME280;7939;50.814;6.368;2022-08-19T02:14:34;99666.38;;;24.07;52.81
15678;BME280;7939;50.814;6.368;2022-08-19T02:17:00;99663.75;;;24.07;52.97
15678;BME280;7939;50.814;6.368;2022-08-19T02:19:27;99656.75;;;24.07;52.75
15678;BME280;7939;50.814;6.368;2022-08-19T02:21:54;99655.94;;;24.07;52.80
15678;BME280;7939;50.814;6.368;2022-08-19T02:24:20;99661.25;;;24.05;52.90
15678;BME280;7939;50.814;6.368;2022-08-19T02:26:47;99655.28;;;24.03;52.75
15678;BME280;7939;50.814;6.368;2022-08-19T02:29:15;99661.34;;;24.04;52.91
15678;BME280;7939;50.814;6.368;2022-08-19T02:31:41;99657.16;;;24.01;53.06
15678;BME280;7939;50.814;6.368;2022-08-19T02:34:08;99664.03;;;24.02;53.27
15678;BME280;7939;50.814;6.368;2022-08-19T02:36:34;99654.53;;;24.01;52.93
15678;BME280;7939;50.814;6.368;2022-08-19T02:39:02;99656.28;;;24.01;53.36
15678;BME280;7939;50.814;6.368;2022-08-19T02:41:31;99667.94;;;23.95;53.45
15678;BME280;7939;50.814;6.368;2022-08-19T02:44:00;99675.00;;;23.93;53.57
15678;BME280;7939;50.814;6.368;2022-08-19T02:46:30;99676.66;;;23.94;53.31
15678;BME280;7939;50.814;6.368;2022-08-19T02:49:01;99671.44;;;23.94;53.40
15678;BME280;7939;50.814;6.368;2022-08-19T02:51:31;99674.91;;;23.94;53.48
15678;BME280;7939;50.814;6.368;2022-08-19T02:53:58;99672.38;;;23.93;53.31
15678;BME280;7939;50.814;6.368;2022-08-19T02:56:25;99669.78;;;23.93;53.77
15678;BME280;7939;50.814;6.368;2022-08-19T02:58:53;99671.53;;;23.92;53.55
15678;BME280;7939;50.814;6.368;2022-08-19T03:01:23;99674.25;;;23.91;53.53
15678;BME280;7939;50.814;6.368;2022-08-19T03:03:51;99674.16;;;23.92;53.44
15678;BME280;7939;50.814;6.368;2022-08-19T03:06:19;99669.03;;;23.91;53.22
15678;BME280;7939;50.814;6.368;2022-08-19T03:08:47;99660.81;;;23.83;53.67
15678;BME280;7939;50.814;6.368;2022-08-19T03:11:16;99671.06;;;23.86;53.71
15678;BME280;7939;50.814;6.368;2022-08-19T03:13:43;99665.75;;;23.87;53.43
15678;BME280;7939;50.814;6.368;2022-08-19T03:16:11;99674.41;;;23.88;53.52
15678;BME280;7939;50.814;6.368;2022-08-19T03:18:38;99677.13;;;23.86;53.51
15678;BME280;7939;50.814;6.368;2022-08-19T03:21:06;99672.91;;;23.84;53.66
15678;BME280;7939;50.814;6.368;2022-08-19T03:23:33;99674.59;;;23.85;53.63
15678;BME280;7939;50.814;6.368;2022-08-19T03:26:03;99674.69;;;23.83;53.67
15678;BME280;7939;50.814;6.368;2022-08-19T03:28:30;99674.69;;;23.83;53.75
15678;BME280;7939;50.814;6.368;2022-08-19T03:30:57;99674.84;;;23.80;53.74
15678;BME280;7939;50.814;6.368;2022-08-19T03:33:25;99674.94;;;23.79;53.75
15678;BME280;7939;50.814;6.368;2022-08-19T03:36:04;99675.88;;;23.78;54.15
15678;BME280;7939;50.814;6.368;2022-08-19T03:38:33;99681.00;;;23.79;53.92
15678;BME280;7939;50.814;6.368;2022-08-19T03:41:05;99683.84;;;23.75;54.09
15678;BME280;7939;50.814;6.368;2022-08-19T03:43:34;99685.72;;;23.73;54.09
15678;BME280;7939;50.814;6.368;2022-08-19T03:46:05;99679.56;;;23.74;54.18
15678;BME280;7939;50.814;6.368;2022-08-19T03:48:33;99680.50;;;23.73;54.04
15678;BME280;7939;50.814;6.368;2022-08-19T03:51:00;99673.50;;;23.73;53.92
15678;BME280;7939;50.814;6.368;2022-08-19T03:53:28;99666.72;;;23.71;54.41
15678;BME280;7939;50.814;6.368;2022-08-19T03:55:57;99668.47;;;23.70;54.38
15678;BME280;7939;50.814;6.368;2022-08-19T03:58:25;99678.03;;;23.69;54.19
15678;BME280;7939;50.814;6.368;2022-08-19T04:00:53;99672.00;;;23.69;54.25
15678;BME280;7939;50.814;6.368;2022-08-19T04:03:19;99682.38;;;23.71;54.56
15678;BME280;7939;50.814;6.368;2022-08-19T04:05:46;99679.06;;;23.67;54.63
15678;BME280;7939;50.814;6.368;2022-08-19T04:08:13;99677.31;;;23.67;54.36
15678;BME280;7939;50.814;6.368;2022-08-19T04:10:43;99687.84;;;23.66;54.32
15678;BME280;7939;50.814;6.368;2022-08-19T04:13:12;99686.06;;;23.66;54.62
15678;BME280;7939;50.814;6.368;2022-08-19T04:15:40;99693.88;;;23.66;54.81
15678;BME280;7939;50.814;6.368;2022-08-19T04:18:07;99695.66;;;23.66;54.64
15678;BME280;7939;50.814;6.368;2022-08-19T04:20:39;99699.09;;;23.66;54.37
15678;BME280;7939;50.814;6.368;2022-08-19T04:23:06;99687.97;;;23.63;54.73
15678;BME280;7939;50.814;6.368;2022-08-19T04:25:36;99698.41;;;23.63;54.84
15678;BME280;7939;50.814;6.368;2022-08-19T04:28:03;99695.81;;;23.63;55.02
15678;BME280;7939;50.814;6.368;2022-08-19T04:30:37;99702.75;;;23.64;54.62
15678;BME280;7939;50.814;6.368;2022-08-19T04:33:04;99701.97;;;23.62;54.85
15678;BME280;7939;50.814;6.368;2022-08-19T04:35:34;99698.41;;;23.63;55.07
15678;BME280;7939;50.814;6.368;2022-08-19T04:38:01;99692.44;;;23.61;55.00
15678;BME280;7939;50.814;6.368;2022-08-19T04:40:28;99701.28;;;23.58;54.68
15678;BME280;7939;50.814;6.368;2022-08-19T04:43:12;99715.25;;;23.57;54.96
15678;BME280;7939;50.814;6.368;2022-08-19T04:45:41;99714.47;;;23.55;54.86
15678;BME280;7939;50.814;6.368;2022-08-19T04:48:08;99711.03;;;23.55;54.90
15678;BME280;7939;50.814;6.368;2022-08-19T04:50:35;99718.84;;;23.55;54.86
15678;BME280;7939;50.814;6.368;2022-08-19T04:53:01;99719.78;;;23.54;54.65
15678;BME280;7939;50.814;6.368;2022-08-19T04:55:28;99723.13;;;23.56;55.12
15678;BME280;7939;50.814;6.368;2022-08-19T04:57:55;99734.50;;;23.55;54.98
15678;BME280;7939;50.814;6.368;2022-08-19T05:00:22;99742.25;;;23.56;54.89
15678;BME280;7939;50.814;6.368;2022-08-19T05:02:49;99744.94;;;23.55;54.76
15678;BME280;7939;50.814;6.368;2022-08-19T05:05:16;99739.72;;;23.55;54.94
15678;BME280;7939;50.814;6.368;2022-08-19T05:07:43;99744.09;;;23.54;54.96
15678;BME280;7939;50.814;6.368;2022-08-19T05:10:10;99750.41;;;23.50;54.90
15678;BME280;7939;50.814;6.368;2022-08-19T05:12:36;99743.34;;;23.52;54.70
15678;BME280;7939;50.814;6.368;2022-08-19T05:15:04;99748.72;;;23.49;54.98
15678;BME280;7939;50.814;6.368;2022-08-19T05:17:32;99752.25;;;23.48;55.08
15678;BME280;7939;50.814;6.368;2022-08-19T05:20:00;99755.69;;;23.49;55.16
15678;BME280;7939;50.814;6.368;2022-08-19T05:22:46;99761.75;;;23.49;54.74
15678;BME280;7939;50.814;6.368;2022-08-19T05:25:15;99763.53;;;23.49;54.92
15678;BME280;7939;50.814;6.368;2022-08-19T05:27:43;99768.84;;;23.47;54.93
15678;BME280;7939;50.814;6.368;2022-08-19T05:30:11;99766.31;;;23.46;54.82
15678;BME280;7939;50.814;6.368;2022-08-19T05:32:38;99765.47;;;23.45;55.05
15678;BME280;7939;50.814;6.368;2022-08-19T05:35:07;99771.44;;;23.47;54.84
15678;BME280;7939;50.814;6.368;2022-08-19T05:37:34;99758.41;;;23.47;54.79
15678;BME280;7939;50.814;6.368;2022-08-19T05:40:02;99754.94;;;23.47;54.82
15678;BME280;7939;50.814;6.368;2022-08-19T05:42:29;99754.94;;;23.47;55.08
15678;BME280;7939;50.814;6.368;2022-08-19T05:44:55;99756.81;;;23.45;55.20
15678;BME280;7939;50.814;6.368;2022-08-19T05:47:22;99757.66;;;23.45;55.30
15678;BME280;7939;50.814;6.368;2022-08-19T05:49:49;99754.19;;;23.45;55.17
15678;BME280;7939;50.814;6.368;2022-08-19T05:52:18;99755.94;;;23.44;55.42
15678;BME280;7939;50.814;6.368;2022-08-19T05:54:46;99759.41;;;23.45;55.30
15678;BME280;7939;50.814;6.368;2022-08-19T05:57:14;99747.22;;;23.45;55.48
15678;BME280;7939;50.814;6.368;2022-08-19T05:59:41;99752.44;;;23.45;55.30
15678;BME280;7939;50.814;6.368;2022-08-19T06:02:09;99742.00;;;23.45;55.62
15678;BME280;7939;50.814;6.368;2022-08-19T06:04:35;99744.66;;;23.43;55.45
15678;BME280;7939;50.814;6.368;2022-08-19T06:07:03;99750.06;;;23.40;55.52
15678;BME280;7939;50.814;6.368;2022-08-19T06:09:31;99749.97;;;23.42;55.42
15678;BME280;7939;50.814;6.368;2022-08-19T06:11:59;99763.00;;;23.42;55.68
15678;BME280;7939;50.814;6.368;2022-08-19T06:14:28;99764.69;;;23.43;55.82
15678;BME280;7939;50.814;6.368;2022-08-19T06:16:56;99761.16;;;23.44;55.27
15678;BME280;7939;50.814;6.368;2022-08-19T06:19:27;99760.25;;;23.45;55.29
15678;BME280;7939;50.814;6.368;2022-08-19T06:21:55;99759.41;;;23.45;55.44
15678;BME280;7939;50.814;6.368;2022-08-19T06:24:26;99753.31;;;23.44;55.48
15678;BME280;7939;50.814;6.368;2022-08-19T06:26:56;99751.59;;;23.45;55.54
15678;BME280;7939;50.814;6.368;2022-08-19T06:29:25;99759.41;;;23.45;55.55
15678;BME280;7939;50.814;6.368;2022-08-19T06:31:56;99762.88;;;23.45;55.47
15678;BME280;7939;50.814;6.368;2022-08-19T06:34:24;99759.31;;;23.46;55.63
15678;BME280;7939;50.814;6.368;2022-08-19T06:36:52;99761.09;;;23.46;55.39
15678;BME280;7939;50.814;6.368;2022-08-19T06:39:22;99759.31;;;23.46;55.53
15678;BME280;7939;50.814;6.368;2022-08-19T06:41:51;99764.53;;;23.46;55.75
15678;BME280;7939;50.814;6.368;2022-08-19T06:44:21;99770.59;;;23.47;55.57
15678;BME280;7939;50.814;6.368;2022-08-19T06:46:48;99761.94;;;23.46;55.53
15678;BME280;7939;50.814;6.368;2022-08-19T06:49:15;99761.00;;;23.47;55.50
15678;BME280;7939;50.814;6.368;2022-08-19T06:51:44;99770.50;;;23.48;55.82
15678;BME280;7939;50.814;6.368;2022-08-19T06:54:13;99772.28;;;23.48;55.72
15678;BME280;7939;50.814;6.368;2022-08-19T06:56:41;99773.97;;;23.49;56.09
15678;BME280;7939;50.814;6.368;2022-08-19T06:59:10;99775.63;;;23.50;56.30
15678;BME280;7939;50.814;6.368;2022-08-19T07:01:40;99783.47;;;23.50;55.82
15678;BME280;7939;50.814;6.368;2022-08-19T07:04:09;99782.53;;;23.51;55.83
15678;BME280;7939;50.814;6.368;2022-08-19T07:06:36;99775.72;;;23.48;55.88
15678;BME280;7939;50.814;6.368;2022-08-19T07:09:04;99781.69;;;23.50;56.00
15678;BME280;7939;50.814;6.368;2022-08-19T07:11:31;99774.81;;;23.49;56.09
15678;BME280;7939;50.814;6.368;2022-08-19T07:13:59;99782.63;;;23.49;55.72
15678;BME280;7939;50.814;6.368;2022-08-19T07:16:25;99784.41;;;23.49;55.89
15678;BME280;7939;50.814;6.368;2022-08-19T07:18:54;99791.22;;;23.51;55.75
15678;BME280;7939;50.814;6.368;2022-08-19T07:21:24;99792.13;;;23.50;56.04
15678;BME280;7939;50.814;6.368;2022-08-19T07:23:52;99793.75;;;23.53;55.60
15678;BME280;7939;50.814;6.368;2022-08-19T07:26:20;99792.81;;;23.54;55.80
15678;BME280;7939;50.814;6.368;2022-08-19T07:28:48;99798.88;;;23.54;55.39
15678;BME280;7939;50.814;6.368;2022-08-19T07:31:17;99801.50;;;23.54;55.28
15678;BME280;7939;50.814;6.368;2022-08-19T07:33:44;99803.41;;;23.51;55.38
15678;BME280;7939;50.814;6.368;2022-08-19T07:36:14;99805.03;;;23.53;55.05
15678;BME280;7939;50.814;6.368;2022-08-19T07:38:44;99800.75;;;23.52;54.83
15678;BME280;7939;50.814;6.368;2022-08-19T07:41:12;99804.94;;;23.55;54.80
15678;BME280;7939;50.814;6.368;2022-08-19T07:43:40;99812.75;;;23.55;54.73
15678;BME280;7939;50.814;6.368;2022-08-19T07:46:08;99827.50;;;23.56;54.97
15678;BME280;7939;50.814;6.368;2022-08-19T07:48:36;99818.72;;;23.57;54.68
15678;BME280;7939;50.814;6.368;2022-08-19T07:51:04;99823.06;;;23.58;54.38
15678;BME280;7939;50.814;6.368;2022-08-19T07:53:36;99828.09;;;23.61;54.78
15678;BME280;7939;50.814;6.368;2022-08-19T07:56:03;99822.03;;;23.60;54.52
15678;BME280;7939;50.814;6.368;2022-08-19T07:58:31;99827.19;;;23.62;54.73
15678;BME280;7939;50.814;6.368;2022-08-19T08:00:59;99827.13;;;23.63;54.74
15678;BME280;7939;50.814;6.368;2022-08-19T08:03:27;99825.28;;;23.65;54.65
15678;BME280;7939;50.814;6.368;2022-08-19T08:06:07;99818.13;;;23.69;54.68
15678;BME280;7939;50.814;6.368;2022-08-19T08:08:53;99821.56;;;23.69;54.75
15678;BME280;7939;50.814;6.368;2022-08-19T08:11:44;99821.41;;;23.73;54.92
15678;BME280;7939;50.814;6.368;2022-08-19T08:14:15;99826.53;;;23.74;54.67
15678;BME280;7939;50.814;6.368;2022-08-19T08:16:42;99818.63;;;23.76;54.61
15678;BME280;7939;50.814;6.368;2022-08-19T08:19:11;99829.25;;;23.73;55.18
15678;BME280;7939;50.814;6.368;2022-08-19T08:21:40;99824.78;;;23.75;55.03
15678;BME280;7939;50.814;6.368;2022-08-19T08:24:09;99829.94;;;23.76;54.63
15678;BME280;7939;50.814;6.368;2022-08-19T08:26:37;99831.53;;;23.79;54.75
15678;BME280;7939;50.814;6.368;2022-08-19T08:29:04;99833.91;;;23.83;54.44
15678;BME280;7939;50.814;6.368;2022-08-19T08:31:33;99836.50;;;23.83;54.81
15678;BME280;7939;50.814;6.368;2022-08-19T08:34:00;99838.78;;;23.89;54.61
15678;BME280;7939;50.814;6.368;2022-08-19T08:36:26;99835.16;;;23.92;54.72
15678;BME280;7939;50.814;6.368;2022-08-19T08:38:53;99843.75;;;23.94;54.37
15678;BME280;7939;50.814;6.368;2022-08-19T08:41:30;99836.59;;;23.98;54.80
15678;BME280;7939;50.814;6.368;2022-08-19T08:43:59;99843.41;;;24.00;54.58
15678;BME280;7939;50.814;6.368;2022-08-19T08:46:35;99838.88;;;24.04;54.73
15678;BME280;7939;50.814;6.368;2022-08-19T08:49:06;99836.09;;;24.07;54.62
15678;BME280;7939;50.814;6.368;2022-08-19T08:51:40;99830.72;;;24.10;54.49
15678;BME280;7939;50.814;6.368;2022-08-19T08:54:12;99835.75;;;24.13;54.39
15678;BME280;7939;50.814;6.368;2022-08-19T08:56:41;99832.97;;;24.16;54.50
15678;BME280;7939;50.814;6.368;2022-08-19T08:59:14;99839.78;;;24.18;54.31
15678;BME280;7939;50.814;6.368;2022-08-19T09:01:42;99835.34;;;24.20;54.48
15678;BME280;7939;50.814;6.368;2022-08-19T09:04:10;99833.47;;;24.22;54.78
15678;BME280;7939;50.814;6.368;2022-08-19T09:06:40;99835.75;;;24.29;54.49
15678;BME280;7939;50.814;6.368;2022-08-19T09:09:14;99831.28;;;24.31;54.43
15678;BME280;7939;50.814;6.368;2022-08-19T09:11:56;99829.50;;;24.31;54.68
15678;BME280;7939;50.814;6.368;2022-08-19T09:14:37;99823.22;;;24.35;54.44
15678;BME280;7939;50.814;6.368;2022-08-19T09:17:07;99828.19;;;24.40;54.55
15678;BME280;7939;50.814;6.368;2022-08-19T09:19:34;99824.47;;;24.44;54.66
15678;BME280;7939;50.814;6.368;2022-08-19T09:22:01;99828.69;;;24.46;54.01
15678;BME280;7939;50.814;6.368;2022-08-19T09:24:27;99836.25;;;24.51;54.10
15678;BME280;7939;50.814;6.368;2022-08-19T09:26:55;99838.59;;;24.56;54.28
15678;BME280;7939;50.814;6.368;2022-08-19T09:29:22;99835.84;;;24.59;54.19
15678;BME280;7939;50.814;6.368;2022-08-19T09:31:49;99834.81;;;24.61;54.21
15678;BME280;7939;50.814;6.368;2022-08-19T09:34:16;99841.63;;;24.64;54.04
15678;BME280;7939;50.814;6.368;2022-08-19T09:36:45;99840.44;;;24.69;54.10
15678;BME280;7939;50.814;6.368;2022-08-19T09:39:11;99845.59;;;24.71;53.90
15678;BME280;7939;50.814;6.368;2022-08-19T09:41:38;99838.41;;;24.74;53.89
15678;BME280;7939;50.814;6.368;2022-08-19T09:44:06;99839.19;;;24.77;53.93
15678;BME280;7939;50.814;6.368;2022-08-19T09:46:32;99833.84;;;24.78;53.71
15678;BME280;7939;50.814;6.368;2022-08-19T09:48:59;99831.97;;;24.80;53.81
15678;BME280;7939;50.814;6.368;2022-08-19T09:51:27;99839.81;;;24.80;53.62
15678;BME280;7939;50.814;6.368;2022-08-19T09:53:59;99844.78;;;24.85;53.55
15678;BME280;7939;50.814;6.368;2022-08-19T09:56:27;99836.00;;;24.86;53.71
15678;BME280;7939;50.814;6.368;2022-08-19T09:58:53;99846.38;;;24.87;53.70
15678;BME280;7939;50.814;6.368;2022-08-19T10:01:23;99846.28;;;24.89;54.17
15678;BME280;7939;50.814;6.368;2022-08-19T10:03:52;99838.91;;;25.11;53.58
15678;BME280;7939;50.814;6.368;2022-08-19T10:06:20;99840.16;;;25.34;53.20
15678;BME280;7939;50.814;6.368;2022-08-19T10:08:48;99837.34;;;25.51;52.82
15678;BME280;7939;50.814;6.368;2022-08-19T10:11:15;99839.16;;;25.65;52.61
15678;BME280;7939;50.814;6.368;2022-08-19T10:13:43;99840.94;;;25.79;52.17
15678;BME280;7939;50.814;6.368;2022-08-19T10:16:12;99833.44;;;25.87;52.31
15678;BME280;7939;50.814;6.368;2022-08-19T10:18:40;99842.47;;;25.96;51.72
15678;BME280;7939;50.814;6.368;2022-08-19T10:21:12;99836.13;;;26.00;51.52
15678;BME280;7939;50.814;6.368;2022-08-19T10:23:41;99836.03;;;26.01;51.63
15678;BME280;7939;50.814;6.368;2022-08-19T10:26:09;99830.59;;;26.04;51.30
15678;BME280;7939;50.814;6.368;2022-08-19T10:28:36;99837.88;;;26.14;51.43
15678;BME280;7939;50.814;6.368;2022-08-19T10:31:04;99836.53;;;26.21;51.23
15678;BME280;7939;50.814;6.368;2022-08-19T10:33:32;99834.69;;;26.23;50.88
15678;BME280;7939;50.814;6.368;2022-08-19T10:36:02;99832.63;;;26.28;50.96
15678;BME280;7939;50.814;6.368;2022-08-19T10:38:29;99827.88;;;26.33;51.11
15678;BME280;7939;50.814;6.368;2022-08-19T10:40:56;99829.38;;;26.37;50.89
15678;BME280;7939;50.814;6.368;2022-08-19T10:43:23;99829.97;;;26.42;50.71
15678;BME280;7939;50.814;6.368;2022-08-19T10:45:53;99831.13;;;26.51;50.79
15678;BME280;7939;50.814;6.368;2022-08-19T10:48:21;99828.22;;;26.55;50.74
15678;BME280;7939;50.814;6.368;2022-08-19T10:50:48;99824.25;;;26.62;50.29
15678;BME280;7939;50.814;6.368;2022-08-19T10:53:34;99821.34;;;26.67;50.21
15678;BME280;7939;50.814;6.368;2022-08-19T10:56:00;99819.25;;;26.72;49.59
15678;BME280;7939;50.814;6.368;2022-08-19T10:58:45;99810.88;;;26.80;49.94
15678;BME280;7939;50.814;6.368;2022-08-19T11:01:11;99803.00;;;26.80;49.86
15678;BME280;7939;50.814;6.368;2022-08-19T11:03:38;99816.00;;;26.81;49.47
15678;BME280;7939;50.814;6.368;2022-08-19T11:06:07;99807.09;;;26.84;49.07
15678;BME280;7939;50.814;6.368;2022-08-19T11:08:36;99802.72;;;26.84;49.04
15678;BME280;7939;50.814;6.368;2022-08-19T11:11:05;99801.53;;;26.88;49.65
15678;BME280;7939;50.814;6.368;2022-08-19T11:13:34;99800.50;;;26.91;49.27
15678;BME280;7939;50.814;6.368;2022-08-19T11:16:05;99800.19;;;26.96;48.98
15678;BME280;7939;50.814;6.368;2022-08-19T11:18:32;99809.66;;;26.98;48.69
15678;BME280;7939;50.814;6.368;2022-08-19T11:21:06;99815.50;;;27.02;49.36
15678;BME280;7939;50.814;6.368;2022-08-19T11:23:32;99806.69;;;27.03;49.08
15678;BME280;7939;50.814;6.368;2022-08-19T11:26:00;99798.75;;;27.04;48.76
15678;BME280;7939;50.814;6.368;2022-08-19T11:28:27;99808.19;;;27.07;48.06
15678;BME280;7939;50.814;6.368;2022-08-19T11:30:54;99796.44;;;27.12;48.77
15678;BME280;7939;50.814;6.368;2022-08-19T11:33:20;99789.41;;;27.13;48.65
15678;BME280;7939;50.814;6.368;2022-08-19T11:35:48;99786.69;;;27.14;47.98
15678;BME280;7939;50.814;6.368;2022-08-19T11:38:15;99790.91;;;27.17;47.14
15678;BME280;7939;50.814;6.368;2022-08-19T11:40:43;99785.31;;;27.22;47.79
15678;BME280;7939;50.814;6.368;2022-08-19T11:43:11;99779.75;;;27.26;47.18
15678;BME280;7939;50.814;6.368;2022-08-19T11:45:38;99778.72;;;27.29;47.53
15678;BME280;7939;50.814;6.368;2022-08-19T11:48:04;99775.75;;;27.33;46.70
15678;BME280;7939;50.814;6.368;2022-08-19T11:50:31;99772.94;;;27.36;46.34
15678;BME280;7939;50.814;6.368;2022-08-19T11:52:57;99775.69;;;27.35;46.71
15678;BME280;7939;50.814;6.368;2022-08-19T11:55:25;99772.94;;;27.36;46.67
15678;BME280;7939;50.814;6.368;2022-08-19T11:57:51;99782.47;;;27.37;46.18
15678;BME280;7939;50.814;6.368;2022-08-19T12:00:19;99779.97;;;27.36;46.14
15678;BME280;7939;50.814;6.368;2022-08-19T12:02:46;99775.25;;;27.41;46.02
15678;BME280;7939;50.814;6.368;2022-08-19T12:05:13;99777.75;;;27.42;45.78
15678;BME280;7939;50.814;6.368;2022-08-19T12:07:40;99781.94;;;27.45;46.99
15678;BME280;7939;50.814;6.368;2022-08-19T12:10:09;99776.38;;;27.50;46.50
15678;BME280;7939;50.814;6.368;2022-08-19T12:12:36;99784.88;;;27.53;46.13
15678;BME280;7939;50.814;6.368;2022-08-19T12:15:08;99772.50;;;27.55;46.59
15678;BME280;7939;50.814;6.368;2022-08-19T12:17:37;99779.66;;;27.53;46.11
15678;BME280;7939;50.814;6.368;2022-08-19T12:20:06;99776.16;;;27.53;46.88
15678;BME280;7939;50.814;6.368;2022-08-19T12:22:34;99774.16;;;27.56;46.98
15678;BME280;7939;50.814;6.368;2022-08-19T12:25:01;99771.53;;;27.56;46.16
15678;BME280;7939;50.814;6.368;2022-08-19T12:27:28;99771.31;;;27.59;47.05
15678;BME280;7939;50.814;6.368;2022-08-19T12:29:54;99769.53;;;27.60;47.08
15678;BME280;7939;50.814;6.368;2022-08-19T12:32:21;99776.47;;;27.61;46.04
15678;BME280;7939;50.814;6.368;2022-08-19T12:34:50;99770.38;;;27.60;45.96
15678;BME280;7939;50.814;6.368;2022-08-19T12:37:20;99761.75;;;27.58;45.49
15678;BME280;7939;50.814;6.368;2022-08-19T12:39:47;99763.41;;;27.59;45.56
15678;BME280;7939;50.814;6.368;2022-08-19T12:42:14;99767.84;;;27.59;45.54
15678;BME280;7939;50.814;6.368;2022-08-19T12:44:42;99765.34;;;27.57;45.56
15678;BME280;7939;50.814;6.368;2022-08-19T12:47:11;99754.00;;;27.57;45.78
15678;BME280;7939;50.814;6.368;2022-08-19T12:49:39;99770.69;;;27.56;45.87
15678;BME280;7939;50.814;6.368;2022-08-19T12:52:07;99761.03;;;27.56;45.63
15678;BME280;7939;50.814;6.368;2022-08-19T12:54:34;99762.81;;;27.56;45.34
15678;BME280;7939;50.814;6.368;2022-08-19T12:57:05;99760.31;;;27.54;45.84
15678;BME280;7939;50.814;6.368;2022-08-19T12:59:33;99756.72;;;27.55;46.33
15678;BME280;7939;50.814;6.368;2022-08-19T13:02:00;99775.09;;;27.55;45.69
15678;BME280;7939;50.814;6.368;2022-08-19T13:04:26;99763.66;;;27.56;45.87
15678;BME280;7939;50.814;6.368;2022-08-19T13:06:53;99762.59;;;27.59;45.47
15678;BME280;7939;50.814;6.368;2022-08-19T13:09:21;99753.03;;;27.58;44.86
15678;BME280;7939;50.814;6.368;2022-08-19T13:11:47;99754.50;;;27.62;44.50
15678;BME280;7939;50.814;6.368;2022-08-19T13:14:14;99748.41;;;27.61;45.08
15678;BME280;7939;50.814;6.368;2022-08-19T13:16:40;99747.59;;;27.61;44.40